sensor_id;sensor_type;location;lat;lon;timestamp;temperature;humidity
68011;DHT22;54794;48.348;7.878;2023-03-01T00:01:39;3.30;51.10
68011;DHT22;54794;48.348;7.878;2023-03-01T00:04:06;3.70;51.40
68011;DHT22;54794;48.348;7.878;2023-03-01T00:06:33;3.20;51.20
68011;DHT22;54794;48.348;7.878;2023-03-01T00:09:01;3.80;51.50
68011;DHT22;54794;48.348;7.878;2023-03-01T00:11:30;3.20;51.20
68011;DHT22;54794;48.348;7.878;2023-03-01T00:14:00;3.20;51.30
68011;DHT22;54794;48.348;7.878;2023-03-01T00:16:31;3.20;51.30
68011;DHT22;54794;48.348;7.878;2023-03-01T00:19:13;3.10;51.30
68011;DHT22;54794;48.348;7.878;2023-03-01T00:21:42;3.10;51.30
68011;DHT22;54794;48.348;7.878;2023-03-01T00:24:10;3.40;51.50
68011;DHT22;54794;48.348;7.878;2023-03-01T00:26:37;3.00;51.30
68011;DHT22;54794;48.348;7.878;2023-03-01T00:29:04;3.00;51.40
68011;DHT22;54794;48.348;7.878;2023-03-01T00:31:33;3.00;51.50
68011;DHT22;54794;48.348;7.878;2023-03-01T00:34:03;3.10;51.30
68011;DHT22;54794;48.348;7.878;2023-03-01T00:36:34;3.00;51.30
68011;DHT22;54794;48.348;7.878;2023-03-01T00:39:05;3.30;51.60
68011;DHT22;54794;48.348;7.878;2023-03-01T00:41:34;2.90;51.40
68011;DHT22;54794;48.348;7.878;2023-03-01T00:44:01;2.90;51.40
68011;DHT22;54794;48.348;7.878;2023-03-01T00:46:28;2.90;51.50
68011;DHT22;54794;48.348;7.878;2023-03-01T00:48:57;2.90;51.50
68011;DHT22;54794;48.348;7.878;2023-03-01T00:51:26;2.90;51.50
68011;DHT22;54794;48.348;7.878;2023-03-01T00:53:56;2.90;51.60
68011;DHT22;54794;48.348;7.878;2023-03-01T00:56:26;2.80;51.60
68011;DHT22;54794;48.348;7.878;2023-03-01T00:58:53;2.80;51.70
68011;DHT22;54794;48.348;7.878;2023-03-01T01:01:24;2.80;51.60
68011;DHT22;54794;48.348;7.878;2023-03-01T01:03:59;2.80;51.70
68011;DHT22;54794;48.348;7.878;2023-03-01T01:06:33;2.80;51.70
68011;DHT22;54794;48.348;7.878;2023-03-01T01:09:05;2.80;51.70
68011;DHT22;54794;48.348;7.878;2023-03-01T01:11:34;2.80;51.70
68011;DHT22;54794;48.348;7.878;2023-03-01T01:14:03;2.80;51.70
68011;DHT22;54794;48.348;7.878;2023-03-01T01:16:30;2.80;51.60
68011;DHT22;54794;48.348;7.878;2023-03-01T01:18:58;2.70;51.70
68011;DHT22;54794;48.348;7.878;2023-03-01T01:21:25;2.70;51.50
68011;DHT22;54794;48.348;7.878;2023-03-01T01:23:54;2.70;51.60
68011;DHT22;54794;48.348;7.878;2023-03-01T01:26:38;2.70;51.70
68011;DHT22;54794;48.348;7.878;2023-03-01T01:29:06;2.70;51.90
68011;DHT22;54794;48.348;7.878;2023-03-01T01:31:35;2.70;51.60
68011;DHT22;54794;48.348;7.878;2023-03-01T01:34:05;2.70;51.70
68011;DHT22;54794;48.348;7.878;2023-03-01T01:36:34;2.70;51.80
68011;DHT22;54794;48.348;7.878;2023-03-01T01:39:03;2.70;52.30
68011;DHT22;54794;48.348;7.878;2023-03-01T01:41:30;2.70;51.80
68011;DHT22;54794;48.348;7.878;2023-03-01T01:47:05;2.60;51.80
68011;DHT22;54794;48.348;7.878;2023-03-01T01:49:46;2.60;52.00
68011;DHT22;54794;48.348;7.878;2023-03-01T01:52:17;2.60;51.90
68011;DHT22;54794;48.348;7.878;2023-03-01T01:55:07;2.60;52.00
68011;DHT22;54794;48.348;7.878;2023-03-01T01:57:41;2.60;52.00
68011;DHT22;54794;48.348;7.878;2023-03-01T02:00:21;2.60;52.00
68011;DHT22;54794;48.348;7.878;2023-03-01T02:02:55;2.60;52.10
68011;DHT22;54794;48.348;7.878;2023-03-01T02:05:41;2.60;52.10
68011;DHT22;54794;48.348;7.878;2023-03-01T02:08:22;2.60;52.00
68011;DHT22;54794;48.348;7.878;2023-03-01T02:10:52;2.60;51.90
68011;DHT22;54794;48.348;7.878;2023-03-01T02:13:21;2.60;52.00
68011;DHT22;54794;48.348;7.878;2023-03-01T02:15:49;3.00;52.10
68011;DHT22;54794;48.348;7.878;2023-03-01T02:18:19;2.60;52.00
68011;DHT22;54794;48.348;7.878;2023-03-01T02:23:54;2.60;52.10
68011;DHT22;54794;48.348;7.878;2023-03-01T02:26:35;2.60;52.00
68011;DHT22;54794;48.348;7.878;2023-03-01T02:29:08;2.50;52.60
68011;DHT22;54794;48.348;7.878;2023-03-01T02:31:35;2.50;52.00
68011;DHT22;54794;48.348;7.878;2023-03-01T02:34:12;2.50;52.00
68011;DHT22;54794;48.348;7.878;2023-03-01T02:39:19;2.50;52.20
68011;DHT22;54794;48.348;7.878;2023-03-01T02:41:53;2.50;52.20
68011;DHT22;54794;48.348;7.878;2023-03-01T02:44:22;2.50;52.20
68011;DHT22;54794;48.348;7.878;2023-03-01T02:46:51;2.50;52.30
68011;DHT22;54794;48.348;7.878;2023-03-01T02:49:27;2.50;52.30
68011;DHT22;54794;48.348;7.878;2023-03-01T02:55:02;2.40;52.50
68011;DHT22;54794;48.348;7.878;2023-03-01T02:57:37;2.50;52.40
68011;DHT22;54794;48.348;7.878;2023-03-01T03:00:18;2.50;52.10
68011;DHT22;54794;48.348;7.878;2023-03-01T03:02:51;2.40;52.20
68011;DHT22;54794;48.348;7.878;2023-03-01T03:05:30;2.40;52.30
68011;DHT22;54794;48.348;7.878;2023-03-01T03:07:59;2.40;52.40
68011;DHT22;54794;48.348;7.878;2023-03-01T03:10:34;2.40;52.30
68011;DHT22;54794;48.348;7.878;2023-03-01T03:13:12;2.40;52.40
68011;DHT22;54794;48.348;7.878;2023-03-01T03:15:42;2.40;52.30
68011;DHT22;54794;48.348;7.878;2023-03-01T03:18:13;2.40;52.30
68011;DHT22;54794;48.348;7.878;2023-03-01T03:20:43;2.30;52.80
68011;DHT22;54794;48.348;7.878;2023-03-01T03:23:11;2.30;52.30
68011;DHT22;54794;48.348;7.878;2023-03-01T03:25:39;2.50;52.40
68011;DHT22;54794;48.348;7.878;2023-03-01T03:28:07;2.30;52.30
68011;DHT22;54794;48.348;7.878;2023-03-01T03:30:39;2.30;52.40
68011;DHT22;54794;48.348;7.878;2023-03-01T03:33:08;2.50;52.50
68011;DHT22;54794;48.348;7.878;2023-03-01T03:35:49;2.30;52.50
68011;DHT22;54794;48.348;7.878;2023-03-01T03:38:19;2.60;52.70
68011;DHT22;54794;48.348;7.878;2023-03-01T03:41:07;2.50;52.60
68011;DHT22;54794;48.348;7.878;2023-03-01T03:43:37;2.40;52.70
68011;DHT22;54794;48.348;7.878;2023-03-01T03:46:06;2.30;52.50
68011;DHT22;54794;48.348;7.878;2023-03-01T03:48:41;2.20;52.40
68011;DHT22;54794;48.348;7.878;2023-03-01T03:51:14;2.30;52.50
68011;DHT22;54794;48.348;7.878;2023-03-01T03:53:43;2.50;52.60
68011;DHT22;54794;48.348;7.878;2023-03-01T03:56:12;2.20;52.40
68011;DHT22;54794;48.348;7.878;2023-03-01T03:58:39;2.20;52.40
68011;DHT22;54794;48.348;7.878;2023-03-01T04:01:06;2.20;52.40
68011;DHT22;54794;48.348;7.878;2023-03-01T04:03:33;2.10;52.40
68011;DHT22;54794;48.348;7.878;2023-03-01T04:06:02;2.10;52.40
68011;DHT22;54794;48.348;7.878;2023-03-01T04:08:31;2.10;52.50
68011;DHT22;54794;48.348;7.878;2023-03-01T04:11:01;2.10;52.50
68011;DHT22;54794;48.348;7.878;2023-03-01T04:13:49;2.10;52.50
68011;DHT22;54794;48.348;7.878;2023-03-01T04:16:17;2.00;52.50
68011;DHT22;54794;48.348;7.878;2023-03-01T04:18:44;2.10;52.70
68011;DHT22;54794;48.348;7.878;2023-03-01T04:21:11;2.10;52.70
68011;DHT22;54794;48.348;7.878;2023-03-01T04:23:39;2.00;52.80
68011;DHT22;54794;48.348;7.878;2023-03-01T04:26:08;2.50;52.80
68011;DHT22;54794;48.348;7.878;2023-03-01T04:28:38;2.00;52.70
68011;DHT22;54794;48.348;7.878;2023-03-01T04:31:12;2.10;52.90
68011;DHT22;54794;48.348;7.878;2023-03-01T04:33:53;2.10;53.00
68011;DHT22;54794;48.348;7.878;2023-03-01T04:36:24;2.10;52.90
68011;DHT22;54794;48.348;7.878;2023-03-01T04:38:54;2.10;53.00
68011;DHT22;54794;48.348;7.878;2023-03-01T04:41:23;2.10;53.00
68011;DHT22;54794;48.348;7.878;2023-03-01T04:43:51;2.10;53.10
68011;DHT22;54794;48.348;7.878;2023-03-01T04:46:20;2.10;53.20
68011;DHT22;54794;48.348;7.878;2023-03-01T04:48:47;2.70;54.00
68011;DHT22;54794;48.348;7.878;2023-03-01T04:51:15;2.20;53.20
68011;DHT22;54794;48.348;7.878;2023-03-01T04:53:43;2.20;53.20
68011;DHT22;54794;48.348;7.878;2023-03-01T04:56:11;2.20;53.30
68011;DHT22;54794;48.348;7.878;2023-03-01T04:58:40;2.30;53.40
68011;DHT22;54794;48.348;7.878;2023-03-01T05:01:10;2.30;53.30
68011;DHT22;54794;48.348;7.878;2023-03-01T05:03:43;2.60;53.70
68011;DHT22;54794;48.348;7.878;2023-03-01T05:06:13;2.30;53.20
68011;DHT22;54794;48.348;7.878;2023-03-01T05:08:42;2.30;53.20
68011;DHT22;54794;48.348;7.878;2023-03-01T05:11:10;2.30;53.30
68011;DHT22;54794;48.348;7.878;2023-03-01T05:13:38;2.40;53.40
68011;DHT22;54794;48.348;7.878;2023-03-01T05:16:07;2.40;53.40
68011;DHT22;54794;48.348;7.878;2023-03-01T05:18:39;2.40;53.40
68011;DHT22;54794;48.348;7.878;2023-03-01T05:21:12;2.40;53.40
68011;DHT22;54794;48.348;7.878;2023-03-01T05:23:44;2.50;53.50
68011;DHT22;54794;48.348;7.878;2023-03-01T05:26:11;2.50;53.40
68011;DHT22;54794;48.348;7.878;2023-03-01T05:28:59;2.50;53.40
68011;DHT22;54794;48.348;7.878;2023-03-01T05:31:26;2.50;53.40
68011;DHT22;54794;48.348;7.878;2023-03-01T05:33:53;2.50;53.50
68011;DHT22;54794;48.348;7.878;2023-03-01T05:36:20;2.50;53.10
68011;DHT22;54794;48.348;7.878;2023-03-01T05:38:47;3.10;53.40
68011;DHT22;54794;48.348;7.878;2023-03-01T05:41:15;2.50;53.20
68011;DHT22;54794;48.348;7.878;2023-03-01T05:43:43;2.60;53.30
68011;DHT22;54794;48.348;7.878;2023-03-01T05:46:11;2.80;53.40
68011;DHT22;54794;48.348;7.878;2023-03-01T05:48:39;2.50;53.40
68011;DHT22;54794;48.348;7.878;2023-03-01T05:51:07;2.50;53.50
68011;DHT22;54794;48.348;7.878;2023-03-01T05:53:33;2.50;53.50
68011;DHT22;54794;48.348;7.878;2023-03-01T05:56:03;2.50;53.50
68011;DHT22;54794;48.348;7.878;2023-03-01T05:58:31;2.50;53.50
68011;DHT22;54794;48.348;7.878;2023-03-01T06:01:11;2.50;53.50
68011;DHT22;54794;48.348;7.878;2023-03-01T06:03:40;2.50;53.70
68011;DHT22;54794;48.348;7.878;2023-03-01T06:06:07;2.60;53.60
68011;DHT22;54794;48.348;7.878;2023-03-01T06:08:33;2.50;53.40
68011;DHT22;54794;48.348;7.878;2023-03-01T06:11:00;2.60;53.50
68011;DHT22;54794;48.348;7.878;2023-03-01T06:13:27;2.60;53.50
68011;DHT22;54794;48.348;7.878;2023-03-01T06:15:54;2.60;53.50
68011;DHT22;54794;48.348;7.878;2023-03-01T06:18:21;2.60;53.40
68011;DHT22;54794;48.348;7.878;2023-03-01T06:20:55;2.80;53.70
68011;DHT22;54794;48.348;7.878;2023-03-01T06:23:22;2.50;53.60
68011;DHT22;54794;48.348;7.878;2023-03-01T06:25:50;2.50;53.60
68011;DHT22;54794;48.348;7.878;2023-03-01T06:28:17;2.50;53.50
68011;DHT22;54794;48.348;7.878;2023-03-01T06:30:44;2.50;53.50
68011;DHT22;54794;48.348;7.878;2023-03-01T06:33:11;2.50;53.40
68011;DHT22;54794;48.348;7.878;2023-03-01T06:35:38;2.80;53.70
68011;DHT22;54794;48.348;7.878;2023-03-01T06:38:59;2.50;53.80
68011;DHT22;54794;48.348;7.878;2023-03-01T06:41:07;3.10;54.40
68011;DHT22;54794;48.348;7.878;2023-03-01T06:43:43;2.90;54.00
68011;DHT22;54794;48.348;7.878;2023-03-01T06:46:17;2.90;54.30
68011;DHT22;54794;48.348;7.878;2023-03-01T06:49:00;2.90;54.20
68011;DHT22;54794;48.348;7.878;2023-03-01T06:51:51;3.20;54.40
68011;DHT22;54794;48.348;7.878;2023-03-01T06:54:21;3.20;54.30
68011;DHT22;54794;48.348;7.878;2023-03-01T06:56:55;3.20;54.40
68011;DHT22;54794;48.348;7.878;2023-03-01T06:59:24;3.20;54.40
68011;DHT22;54794;48.348;7.878;2023-03-01T07:01:56;3.10;54.30
68011;DHT22;54794;48.348;7.878;2023-03-01T07:05:00;2.70;54.10
68011;DHT22;54794;48.348;7.878;2023-03-01T07:07:33;2.70;54.50
68011;DHT22;54794;48.348;7.878;2023-03-01T07:12:58;2.80;54.40
68011;DHT22;54794;48.348;7.878;2023-03-01T07:15:28;3.60;54.80
68011;DHT22;54794;48.348;7.878;2023-03-01T07:17:56;3.50;54.50
68011;DHT22;54794;48.348;7.878;2023-03-01T07:20:23;2.90;54.30
68011;DHT22;54794;48.348;7.878;2023-03-01T07:22:53;3.00;54.20
68011;DHT22;54794;48.348;7.878;2023-03-01T07:25:21;3.30;54.20
68011;DHT22;54794;48.348;7.878;2023-03-01T07:27:52;3.70;54.50
68011;DHT22;54794;48.348;7.878;2023-03-01T07:30:20;3.00;54.20
68011;DHT22;54794;48.348;7.878;2023-03-01T07:32:48;3.00;54.20
68011;DHT22;54794;48.348;7.878;2023-03-01T07:35:17;3.40;54.40
68011;DHT22;54794;48.348;7.878;2023-03-01T07:37:44;3.10;54.30
68011;DHT22;54794;48.348;7.878;2023-03-01T07:40:12;3.30;54.50
68011;DHT22;54794;48.348;7.878;2023-03-01T07:42:39;3.00;54.50
68011;DHT22;54794;48.348;7.878;2023-03-01T07:45:06;3.30;54.50
68011;DHT22;54794;48.348;7.878;2023-03-01T07:47:35;3.20;54.30
68011;DHT22;54794;48.348;7.878;2023-03-01T07:50:10;3.30;54.50
68011;DHT22;54794;48.348;7.878;2023-03-01T07:52:40;4.10;55.10
68011;DHT22;54794;48.348;7.878;2023-03-01T07:55:18;4.10;55.30
68011;DHT22;54794;48.348;7.878;2023-03-01T07:57:46;3.40;54.50
68011;DHT22;54794;48.348;7.878;2023-03-01T08:00:21;4.00;54.90
68011;DHT22;54794;48.348;7.878;2023-03-01T08:03:08;3.40;54.40
68011;DHT22;54794;48.348;7.878;2023-03-01T08:06:02;3.50;54.60
68011;DHT22;54794;48.348;7.878;2023-03-01T08:08:53;3.50;54.40
68011;DHT22;54794;48.348;7.878;2023-03-01T08:11:25;3.50;54.60
68011;DHT22;54794;48.348;7.878;2023-03-01T08:14:04;4.40;54.70
68011;DHT22;54794;48.348;7.878;2023-03-01T08:16:34;4.00;54.30
68011;DHT22;54794;48.348;7.878;2023-03-01T08:19:08;4.30;54.50
68011;DHT22;54794;48.348;7.878;2023-03-01T08:24:24;3.60;53.90
68011;DHT22;54794;48.348;7.878;2023-03-01T08:27:10;3.60;54.20
68011;DHT22;54794;48.348;7.878;2023-03-01T08:34:03;3.90;54.80
68011;DHT22;54794;48.348;7.878;2023-03-01T08:37:01;4.00;54.70
68011;DHT22;54794;48.348;7.878;2023-03-01T08:39:28;3.80;54.40
68011;DHT22;54794;48.348;7.878;2023-03-01T08:41:55;3.80;54.80
68011;DHT22;54794;48.348;7.878;2023-03-01T08:44:22;3.90;54.50
68011;DHT22;54794;48.348;7.878;2023-03-01T08:46:50;3.90;54.40
68011;DHT22;54794;48.348;7.878;2023-03-01T08:49:19;3.90;54.40
68011;DHT22;54794;48.348;7.878;2023-03-01T08:51:47;4.20;54.70
68011;DHT22;54794;48.348;7.878;2023-03-01T08:54:19;4.00;55.00
68011;DHT22;54794;48.348;7.878;2023-03-01T08:56:49;4.00;54.40
68011;DHT22;54794;48.348;7.878;2023-03-01T08:59:17;4.30;54.70
68011;DHT22;54794;48.348;7.878;2023-03-01T09:01:45;4.40;54.90
68011;DHT22;54794;48.348;7.878;2023-03-01T09:04:12;4.30;55.10
68011;DHT22;54794;48.348;7.878;2023-03-01T09:06:41;4.30;55.10
68011;DHT22;54794;48.348;7.878;2023-03-01T09:09:15;4.40;55.20
68011;DHT22;54794;48.348;7.878;2023-03-01T09:11:44;4.50;55.50
68011;DHT22;54794;48.348;7.878;2023-03-01T09:14:16;4.70;55.20
68011;DHT22;54794;48.348;7.878;2023-03-01T09:16:46;4.70;55.00
68011;DHT22;54794;48.348;7.878;2023-03-01T09:19:13;4.80;55.00
68011;DHT22;54794;48.348;7.878;2023-03-01T09:21:40;5.30;55.10
68011;DHT22;54794;48.348;7.878;2023-03-01T09:24:15;5.00;54.90
68011;DHT22;54794;48.348;7.878;2023-03-01T09:26:42;5.10;54.80
68011;DHT22;54794;48.348;7.878;2023-03-01T09:29:15;5.20;55.00
68011;DHT22;54794;48.348;7.878;2023-03-01T09:31:42;6.00;55.40
68011;DHT22;54794;48.348;7.878;2023-03-01T09:34:10;5.40;55.00
68011;DHT22;54794;48.348;7.878;2023-03-01T09:36:37;5.50;55.40
68011;DHT22;54794;48.348;7.878;2023-03-01T09:39:04;5.70;55.30
68011;DHT22;54794;48.348;7.878;2023-03-01T09:42:01;5.80;55.20
68011;DHT22;54794;48.348;7.878;2023-03-01T09:44:42;5.90;55.60
68011;DHT22;54794;48.348;7.878;2023-03-01T09:47:33;6.10;55.40
68011;DHT22;54794;48.348;7.878;2023-03-01T09:50:06;6.20;55.40
68011;DHT22;54794;48.348;7.878;2023-03-01T09:52:48;6.30;55.10
68011;DHT22;54794;48.348;7.878;2023-03-01T10:04:32;6.60;54.40
68011;DHT22;54794;48.348;7.878;2023-03-01T10:07:21;7.20;54.70
68011;DHT22;54794;48.348;7.878;2023-03-01T10:09:54;6.80;54.40
68011;DHT22;54794;48.348;7.878;2023-03-01T10:12:31;7.20;54.60
68011;DHT22;54794;48.348;7.878;2023-03-01T10:15:15;6.90;54.30
68011;DHT22;54794;48.348;7.878;2023-03-01T10:18:14;7.00;54.20
68011;DHT22;54794;48.348;7.878;2023-03-01T10:20:57;7.00;54.10
68011;DHT22;54794;48.348;7.878;2023-03-01T10:23:27;7.30;54.10
68011;DHT22;54794;48.348;7.878;2023-03-01T10:28:54;7.10;53.80
68011;DHT22;54794;48.348;7.878;2023-03-01T10:31:46;7.10;53.90
68011;DHT22;54794;48.348;7.878;2023-03-01T10:37:19;7.20;53.90
68011;DHT22;54794;48.348;7.878;2023-03-01T10:40:03;7.30;53.90
68011;DHT22;54794;48.348;7.878;2023-03-01T10:42:47;7.30;53.80
68011;DHT22;54794;48.348;7.878;2023-03-01T10:48:26;7.40;54.30
68011;DHT22;54794;48.348;7.878;2023-03-01T10:53:41;7.50;54.10
68011;DHT22;54794;48.348;7.878;2023-03-01T10:56:15;7.60;54.00
68011;DHT22;54794;48.348;7.878;2023-03-01T10:59:04;7.90;53.90
68011;DHT22;54794;48.348;7.878;2023-03-01T11:01:35;7.70;54.20
68011;DHT22;54794;48.348;7.878;2023-03-01T11:06:37;7.90;54.00
68011;DHT22;54794;48.348;7.878;2023-03-01T11:09:17;8.10;54.00
68011;DHT22;54794;48.348;7.878;2023-03-01T11:11:51;7.80;53.70
68011;DHT22;54794;48.348;7.878;2023-03-01T11:14:29;7.90;53.70
68011;DHT22;54794;48.348;7.878;2023-03-01T11:17:30;8.10;53.60
68011;DHT22;54794;48.348;7.878;2023-03-01T11:22:49;7.90;53.40
68011;DHT22;54794;48.348;7.878;2023-03-01T11:25:23;8.20;53.50
68011;DHT22;54794;48.348;7.878;2023-03-01T11:27:56;8.20;53.50
68011;DHT22;54794;48.348;7.878;2023-03-01T11:33:13;8.00;53.20
68011;DHT22;54794;48.348;7.878;2023-03-01T11:38:40;8.00;53.30
68011;DHT22;54794;48.348;7.878;2023-03-01T11:41:14;8.00;53.30
68011;DHT22;54794;48.348;7.878;2023-03-01T11:44:00;8.10;53.40
68011;DHT22;54794;48.348;7.878;2023-03-01T11:51:55;8.20;53.60
68011;DHT22;54794;48.348;7.878;2023-03-01T11:57:47;8.30;53.30
68011;DHT22;54794;48.348;7.878;2023-03-01T12:07:00;8.50;53.20
68011;DHT22;54794;48.348;7.878;2023-03-01T12:09:33;8.60;53.30
68011;DHT22;54794;48.348;7.878;2023-03-01T12:48:40;9.70;52.80
68011;DHT22;54794;48.348;7.878;2023-03-01T12:51:20;9.80;52.80
68011;DHT22;54794;48.348;7.878;2023-03-01T12:53:55;9.90;52.90
68011;DHT22;54794;48.348;7.878;2023-03-01T12:56:29;10.00;52.90
68011;DHT22;54794;48.348;7.878;2023-03-01T13:02:16;10.20;52.50
68011;DHT22;54794;48.348;7.878;2023-03-01T13:08:04;10.50;52.60
68011;DHT22;54794;48.348;7.878;2023-03-01T13:10:50;10.50;52.30
68011;DHT22;54794;48.348;7.878;2023-03-01T13:13:27;10.60;52.40
68011;DHT22;54794;48.348;7.878;2023-03-01T13:19:26;10.80;52.00
68011;DHT22;54794;48.348;7.878;2023-03-01T13:24:44;11.00;52.20
68011;DHT22;54794;48.348;7.878;2023-03-01T13:27:40;11.10;52.10
68011;DHT22;54794;48.348;7.878;2023-03-01T13:30:48;11.10;51.90
68011;DHT22;54794;48.348;7.878;2023-03-01T13:37:10;11.30;51.60
68011;DHT22;54794;48.348;7.878;2023-03-01T13:40:56;11.50;51.60
68011;DHT22;54794;48.348;7.878;2023-03-01T13:43:37;11.40;51.50
68011;DHT22;54794;48.348;7.878;2023-03-01T14:05:21;11.80;50.50
68011;DHT22;54794;48.348;7.878;2023-03-01T14:08:24;11.90;51.00
68011;DHT22;54794;48.348;7.878;2023-03-01T14:15:31;11.90;50.60
68011;DHT22;54794;48.348;7.878;2023-03-01T14:26:38;12.10;50.50
68011;DHT22;54794;48.348;7.878;2023-03-01T14:29:44;12.10;50.40
68011;DHT22;54794;48.348;7.878;2023-03-01T14:35:41;12.00;50.30
68011;DHT22;54794;48.348;7.878;2023-03-01T14:38:20;12.10;50.10
68011;DHT22;54794;48.348;7.878;2023-03-01T14:40:52;12.10;49.80
68011;DHT22;54794;48.348;7.878;2023-03-01T14:43:25;12.10;50.10
68011;DHT22;54794;48.348;7.878;2023-03-01T14:45:52;12.10;50.00
68011;DHT22;54794;48.348;7.878;2023-03-01T14:48:20;12.10;50.10
68011;DHT22;54794;48.348;7.878;2023-03-01T14:50:48;12.10;49.90
68011;DHT22;54794;48.348;7.878;2023-03-01T14:53:25;12.10;49.90
68011;DHT22;54794;48.348;7.878;2023-03-01T14:55:56;12.00;49.70
68011;DHT22;54794;48.348;7.878;2023-03-01T14:58:32;12.00;49.60
68011;DHT22;54794;48.348;7.878;2023-03-01T15:01:03;12.10;49.80
68011;DHT22;54794;48.348;7.878;2023-03-01T15:03:35;12.10;49.90
68011;DHT22;54794;48.348;7.878;2023-03-01T15:06:06;12.10;49.90
68011;DHT22;54794;48.348;7.878;2023-03-01T15:08:35;12.10;50.00
68011;DHT22;54794;48.348;7.878;2023-03-01T15:13:41;12.20;49.70
68011;DHT22;54794;48.348;7.878;2023-03-01T15:18:52;12.20;49.80
68011;DHT22;54794;48.348;7.878;2023-03-01T15:21:24;12.10;49.60
68011;DHT22;54794;48.348;7.878;2023-03-01T15:24:25;12.10;49.70
68011;DHT22;54794;48.348;7.878;2023-03-01T15:26:59;12.20;49.30
68011;DHT22;54794;48.348;7.878;2023-03-01T15:29:34;12.20;49.70
68011;DHT22;54794;48.348;7.878;2023-03-01T15:32:33;12.20;49.70
68011;DHT22;54794;48.348;7.878;2023-03-01T15:35:41;12.20;49.40
68011;DHT22;54794;48.348;7.878;2023-03-01T15:38:28;12.20;49.10
68011;DHT22;54794;48.348;7.878;2023-03-01T15:41:30;12.20;49.00
68011;DHT22;54794;48.348;7.878;2023-03-01T15:44:23;12.10;48.70
68011;DHT22;54794;48.348;7.878;2023-03-01T15:47:01;12.10;49.10
68011;DHT22;54794;48.348;7.878;2023-03-01T15:49:52;12.00;49.20
68011;DHT22;54794;48.348;7.878;2023-03-01T15:52:48;12.00;49.20
68011;DHT22;54794;48.348;7.878;2023-03-01T15:55:25;12.00;49.00
68011;DHT22;54794;48.348;7.878;2023-03-01T15:58:05;12.00;49.00
68011;DHT22;54794;48.348;7.878;2023-03-01T16:00:36;11.90;49.10
68011;DHT22;54794;48.348;7.878;2023-03-01T16:03:11;11.90;49.30
68011;DHT22;54794;48.348;7.878;2023-03-01T16:05:39;11.90;49.30
68011;DHT22;54794;48.348;7.878;2023-03-01T16:08:06;11.90;49.20
68011;DHT22;54794;48.348;7.878;2023-03-01T16:10:33;11.90;49.30
68011;DHT22;54794;48.348;7.878;2023-03-01T16:13:02;11.80;49.20
68011;DHT22;54794;48.348;7.878;2023-03-01T16:15:32;11.80;49.10
68011;DHT22;54794;48.348;7.878;2023-03-01T16:18:05;11.70;49.10
68011;DHT22;54794;48.348;7.878;2023-03-01T16:20:34;11.70;49.10
68011;DHT22;54794;48.348;7.878;2023-03-01T16:23:05;11.60;48.90
68011;DHT22;54794;48.348;7.878;2023-03-01T16:25:35;11.50;48.80
68011;DHT22;54794;48.348;7.878;2023-03-01T16:28:05;11.50;48.80
68011;DHT22;54794;48.348;7.878;2023-03-01T16:30:37;11.40;48.70
68011;DHT22;54794;48.348;7.878;2023-03-01T16:33:07;11.30;48.70
68011;DHT22;54794;48.348;7.878;2023-03-01T16:35:56;11.20;48.80
68011;DHT22;54794;48.348;7.878;2023-03-01T16:38:27;11.10;48.70
68011;DHT22;54794;48.348;7.878;2023-03-01T16:40:55;11.00;48.80
68011;DHT22;54794;48.348;7.878;2023-03-01T16:43:23;11.00;48.90
68011;DHT22;54794;48.348;7.878;2023-03-01T16:45:50;10.90;48.80
68011;DHT22;54794;48.348;7.878;2023-03-01T16:48:18;10.80;48.90
68011;DHT22;54794;48.348;7.878;2023-03-01T16:50:54;10.70;48.90
68011;DHT22;54794;48.348;7.878;2023-03-01T16:53:22;10.60;48.70
68011;DHT22;54794;48.348;7.878;2023-03-01T16:55:59;10.60;48.90
68011;DHT22;54794;48.348;7.878;2023-03-01T16:58:26;10.50;48.80
68011;DHT22;54794;48.348;7.878;2023-03-01T17:00:54;10.40;48.90
68011;DHT22;54794;48.348;7.878;2023-03-01T17:03:24;10.30;49.40
68011;DHT22;54794;48.348;7.878;2023-03-01T17:05:52;10.30;49.00
68011;DHT22;54794;48.348;7.878;2023-03-01T17:08:20;10.30;49.10
68011;DHT22;54794;48.348;7.878;2023-03-01T17:10:47;10.20;49.00
68011;DHT22;54794;48.348;7.878;2023-03-01T17:13:14;10.10;49.10
68011;DHT22;54794;48.348;7.878;2023-03-01T17:15:41;10.00;49.10
68011;DHT22;54794;48.348;7.878;2023-03-01T17:18:09;10.20;49.20
68011;DHT22;54794;48.348;7.878;2023-03-01T17:20:36;9.90;49.20
68011;DHT22;54794;48.348;7.878;2023-03-01T17:23:03;9.80;49.10
68011;DHT22;54794;48.348;7.878;2023-03-01T17:25:31;10.00;49.30
68011;DHT22;54794;48.348;7.878;2023-03-01T17:27:59;9.90;49.20
68011;DHT22;54794;48.348;7.878;2023-03-01T17:30:26;9.70;49.30
68011;DHT22;54794;48.348;7.878;2023-03-01T17:32:54;9.70;49.30
68011;DHT22;54794;48.348;7.878;2023-03-01T17:35:21;9.60;49.30
68011;DHT22;54794;48.348;7.878;2023-03-01T17:37:48;9.50;49.10
68011;DHT22;54794;48.348;7.878;2023-03-01T17:40:16;9.60;49.40
68011;DHT22;54794;48.348;7.878;2023-03-01T17:42:43;9.40;49.30
68011;DHT22;54794;48.348;7.878;2023-03-01T17:45:11;9.30;49.30
68011;DHT22;54794;48.348;7.878;2023-03-01T17:47:39;9.50;49.50
68011;DHT22;54794;48.348;7.878;2023-03-01T17:50:06;9.40;49.50
68011;DHT22;54794;48.348;7.878;2023-03-01T17:52:34;9.20;49.40
68011;DHT22;54794;48.348;7.878;2023-03-01T17:55:04;9.20;49.50
68011;DHT22;54794;48.348;7.878;2023-03-01T17:57:31;9.10;49.50
68011;DHT22;54794;48.348;7.878;2023-03-01T17:59:58;9.00;49.50
68011;DHT22;54794;48.348;7.878;2023-03-01T18:02:25;9.00;49.50
68011;DHT22;54794;48.348;7.878;2023-03-01T18:04:56;9.00;49.60
68011;DHT22;54794;48.348;7.878;2023-03-01T18:07:27;8.90;50.10
68011;DHT22;54794;48.348;7.878;2023-03-01T18:09:55;8.90;49.60
68011;DHT22;54794;48.348;7.878;2023-03-01T18:12:22;8.90;49.70
68011;DHT22;54794;48.348;7.878;2023-03-01T18:14:49;8.80;49.70
68011;DHT22;54794;48.348;7.878;2023-03-01T18:17:23;8.80;49.70
68011;DHT22;54794;48.348;7.878;2023-03-01T18:19:51;8.70;49.70
68011;DHT22;54794;48.348;7.878;2023-03-01T18:22:18;8.70;49.80
68011;DHT22;54794;48.348;7.878;2023-03-01T18:24:44;8.70;49.80
68011;DHT22;54794;48.348;7.878;2023-03-01T18:27:11;8.70;49.80
68011;DHT22;54794;48.348;7.878;2023-03-01T18:29:38;8.70;49.90
68011;DHT22;54794;48.348;7.878;2023-03-01T18:32:05;8.60;49.80
68011;DHT22;54794;48.348;7.878;2023-03-01T18:34:32;8.60;49.90
68011;DHT22;54794;48.348;7.878;2023-03-01T18:37:00;8.50;49.80
68011;DHT22;54794;48.348;7.878;2023-03-01T18:39:36;8.50;49.70
68011;DHT22;54794;48.348;7.878;2023-03-01T18:42:04;8.50;50.30
68011;DHT22;54794;48.348;7.878;2023-03-01T18:44:31;8.40;49.90
68011;DHT22;54794;48.348;7.878;2023-03-01T18:46:58;8.40;49.90
68011;DHT22;54794;48.348;7.878;2023-03-01T18:49:25;8.40;50.00
68011;DHT22;54794;48.348;7.878;2023-03-01T18:51:53;8.40;50.00
68011;DHT22;54794;48.348;7.878;2023-03-01T18:54:21;8.30;50.00
68011;DHT22;54794;48.348;7.878;2023-03-01T18:56:48;8.30;50.10
68011;DHT22;54794;48.348;7.878;2023-03-01T18:59:16;8.30;50.10
68011;DHT22;54794;48.348;7.878;2023-03-01T19:01:43;8.20;50.10